sensor_id;sensor_type;location;lat;lon;timestamp;P1;durP1;ratioP1;P2;durP2;ratioP2
65053;SDS011;51639;47.828;35.038;2024-02-28T00:11:08;12.30;;;3.13;;
65053;SDS011;51639;47.828;35.038;2024-02-28T00:26:11;4.57;;;1.90;;
65053;SDS011;51639;47.828;35.038;2024-02-28T00:41:13;6.27;;;2.77;;
65053;SDS011;51639;47.828;35.038;2024-02-28T00:56:16;11.30;;;2.90;;
65053;SDS011;51639;47.828;35.038;2024-02-28T01:11:18;13.70;;;3.47;;
65053;SDS011;51639;47.828;35.038;2024-02-28T01:26:20;12.60;;;3.53;;
65053;SDS011;51639;47.828;35.038;2024-02-28T01:41:23;8.33;;;2.80;;
65053;SDS011;51639;47.828;35.038;2024-02-28T01:56:25;23.40;;;3.70;;
65053;SDS011;51639;47.828;35.038;2024-02-28T02:11:28;12.57;;;3.37;;
65053;SDS011;51639;47.828;35.038;2024-02-28T02:26:30;18.70;;;3.90;;
65053;SDS011;51639;47.828;35.038;2024-02-28T02:41:34;11.07;;;3.10;;
65053;SDS011;51639;47.828;35.038;2024-02-28T02:56:36;6.63;;;2.77;;
65053;SDS011;51639;47.828;35.038;2024-02-28T03:11:38;10.83;;;2.70;;
65053;SDS011;51639;47.828;35.038;2024-02-28T03:26:40;6.57;;;2.87;;
65053;SDS011;51639;47.828;35.038;2024-02-28T03:41:43;10.30;;;3.10;;
65053;SDS011;51639;47.828;35.038;2024-02-28T03:56:46;6.77;;;3.03;;
65053;SDS011;51639;47.828;35.038;2024-02-28T04:11:48;6.63;;;3.37;;
65053;SDS011;51639;47.828;35.038;2024-02-28T04:26:50;10.90;;;4.37;;
65053;SDS011;51639;47.828;35.038;2024-02-28T04:41:54;9.37;;;2.33;;
65053;SDS011;51639;47.828;35.038;2024-02-28T04:56:57;8.33;;;3.00;;
65053;SDS011;51639;47.828;35.038;2024-02-28T05:11:58;7.90;;;2.57;;
65053;SDS011;51639;47.828;35.038;2024-02-28T05:27:01;14.83;;;2.60;;
65053;SDS011;51639;47.828;35.038;2024-02-28T05:42:05;2.37;;;1.80;;
65053;SDS011;51639;47.828;35.038;2024-02-28T05:57:07;3.80;;;2.03;;
65053;SDS011;51639;47.828;35.038;2024-02-28T06:12:09;5.40;;;3.10;;
65053;SDS011;51639;47.828;35.038;2024-02-28T06:27:11;5.10;;;2.37;;
65053;SDS011;51639;47.828;35.038;2024-02-28T06:42:14;5.93;;;2.47;;
65053;SDS011;51639;47.828;35.038;2024-02-28T06:57:16;5.83;;;2.33;;
65053;SDS011;51639;47.828;35.038;2024-02-28T07:12:19;7.07;;;2.27;;
65053;SDS011;51639;47.828;35.038;2024-02-28T07:27:27;10.17;;;2.50;;
65053;SDS011;51639;47.828;35.038;2024-02-28T07:42:29;9.97;;;2.90;;
65053;SDS011;51639;47.828;35.038;2024-02-28T07:57:31;6.70;;;2.20;;
65053;SDS011;51639;47.828;35.038;2024-02-28T08:12:33;7.03;;;2.10;;
65053;SDS011;51639;47.828;35.038;2024-02-28T08:27:35;8.63;;;2.13;;
65053;SDS011;51639;47.828;35.038;2024-02-28T08:42:37;6.43;;;2.27;;
65053;SDS011;51639;47.828;35.038;2024-02-28T08:57:40;8.97;;;2.73;;
65053;SDS011;51639;47.828;35.038;2024-02-28T09:12:42;4.03;;;1.73;;
65053;SDS011;51639;47.828;35.038;2024-02-28T09:27:47;4.63;;;1.30;;
65053;SDS011;51639;47.828;35.038;2024-02-28T09:42:52;6.57;;;1.77;;
65053;SDS011;51639;47.828;35.038;2024-02-28T09:57:59;6.90;;;1.40;;
65053;SDS011;51639;47.828;35.038;2024-02-28T10:13:03;2.27;;;1.20;;
65053;SDS011;51639;47.828;35.038;2024-02-28T10:28:08;5.80;;;1.13;;
65053;SDS011;51639;47.828;35.038;2024-02-28T10:43:10;3.00;;;0.80;;
65053;SDS011;51639;47.828;35.038;2024-02-28T10:58:21;5.63;;;0.87;;
65053;SDS011;51639;47.828;35.038;2024-02-28T11:28:36;2.17;;;0.70;;
65053;SDS011;51639;47.828;35.038;2024-02-28T11:43:38;1.40;;;0.80;;
65053;SDS011;51639;47.828;35.038;2024-02-28T11:58:53;2.83;;;1.10;;
65053;SDS011;51639;47.828;35.038;2024-02-28T12:13:55;3.30;;;1.03;;
65053;SDS011;51639;47.828;35.038;2024-02-28T12:28:58;3.63;;;1.70;;
65053;SDS011;51639;47.828;35.038;2024-02-28T12:44:00;3.20;;;1.27;;
65053;SDS011;51639;47.828;35.038;2024-02-28T12:59:05;3.47;;;1.67;;
65053;SDS011;51639;47.828;35.038;2024-02-28T13:14:11;2.30;;;1.40;;
65053;SDS011;51639;47.828;35.038;2024-02-28T13:29:13;2.37;;;1.30;;
65053;SDS011;51639;47.828;35.038;2024-02-28T13:44:15;2.67;;;1.10;;
65053;SDS011;51639;47.828;35.038;2024-02-28T13:59:17;1.73;;;1.07;;
65053;SDS011;51639;47.828;35.038;2024-02-28T14:14:19;3.87;;;1.90;;
65053;SDS011;51639;47.828;35.038;2024-02-28T14:29:21;5.47;;;2.23;;
65053;SDS011;51639;47.828;35.038;2024-02-28T14:44:23;4.97;;;2.13;;
65053;SDS011;51639;47.828;35.038;2024-02-28T14:59:25;2.70;;;2.10;;
65053;SDS011;51639;47.828;35.038;2024-02-28T15:14:27;4.03;;;1.10;;
65053;SDS011;51639;47.828;35.038;2024-02-28T15:29:29;4.93;;;1.80;;
65053;SDS011;51639;47.828;35.038;2024-02-28T15:44:31;8.90;;;2.13;;
65053;SDS011;51639;47.828;35.038;2024-02-28T15:59:36;10.20;;;3.03;;
65053;SDS011;51639;47.828;35.038;2024-02-28T16:14:44;10.17;;;2.40;;
65053;SDS011;51639;47.828;35.038;2024-02-28T16:29:46;10.73;;;2.93;;
65053;SDS011;51639;47.828;35.038;2024-02-28T16:44:48;10.70;;;3.53;;
65053;SDS011;51639;47.828;35.038;2024-02-28T16:59:50;7.13;;;4.33;;
65053;SDS011;51639;47.828;35.038;2024-02-28T17:14:53;9.53;;;4.37;;
65053;SDS011;51639;47.828;35.038;2024-02-28T17:29:55;13.83;;;4.20;;
65053;SDS011;51639;47.828;35.038;2024-02-28T17:44:58;8.97;;;4.17;;
65053;SDS011;51639;47.828;35.038;2024-02-28T18:00:00;14.77;;;5.37;;
65053;SDS011;51639;47.828;35.038;2024-02-28T18:15:04;15.00;;;4.13;;
65053;SDS011;51639;47.828;35.038;2024-02-28T18:30:15;9.53;;;4.70;;
65053;SDS011;51639;47.828;35.038;2024-02-28T18:45:17;11.27;;;4.30;;
65053;SDS011;51639;47.828;35.038;2024-02-28T19:00:20;11.67;;;5.00;;
65053;SDS011;51639;47.828;35.038;2024-02-28T19:15:22;16.07;;;5.77;;
65053;SDS011;51639;47.828;35.038;2024-02-28T19:30:24;11.60;;;5.57;;
65053;SDS011;51639;47.828;35.038;2024-02-28T19:45:26;13.73;;;5.70;;
65053;SDS011;51639;47.828;35.038;2024-02-28T20:00:29;13.77;;;5.53;;
65053;SDS011;51639;47.828;35.038;2024-02-28T20:15:31;14.93;;;6.70;;
65053;SDS011;51639;47.828;35.038;2024-02-28T20:30:33;12.00;;;6.83;;
65053;SDS011;51639;47.828;35.038;2024-02-28T20:45:36;15.50;;;7.60;;
65053;SDS011;51639;47.828;35.038;2024-02-28T21:00:38;22.23;;;7.23;;
65053;SDS011;51639;47.828;35.038;2024-02-28T21:15:41;13.10;;;6.67;;
65053;SDS011;51639;47.828;35.038;2024-02-28T21:30:43;13.50;;;6.07;;
65053;SDS011;51639;47.828;35.038;2024-02-28T21:45:45;10.87;;;6.30;;
65053;SDS011;51639;47.828;35.038;2024-02-28T22:00:47;8.60;;;5.73;;
65053;SDS011;51639;47.828;35.038;2024-02-28T22:15:52;12.63;;;5.50;;
65053;SDS011;51639;47.828;35.038;2024-02-28T22:30:54;12.40;;;5.17;;
65053;SDS011;51639;47.828;35.038;2024-02-28T22:45:57;6.43;;;4.20;;
65053;SDS011;51639;47.828;35.038;2024-02-28T23:00:59;9.20;;;4.17;;
65053;SDS011;51639;47.828;35.038;2024-02-28T23:16:01;8.67;;;5.07;;
65053;SDS011;51639;47.828;35.038;2024-02-28T23:31:03;11.83;;;3.60;;
65053;SDS011;51639;47.828;35.038;2024-02-28T23:46:06;9.20;;;4.80;;
